Cyril, Oklahoma
Current Conditions -  °F | °C
As of 11:58 AM on Friday 24 Oct 2014 (Local Time) from KFSI Reporting Station
Clear Clear  
Wind Chill: 25°   Ceiling: Unl
Heat Index: 26°   Visibility: 10mi
Dew Point: 17°   Wind: 10mph
Humidity: 61%   Direction: 180°S
Pressure: 30.1"   Gusts: NA
Location:  34.9°N, 98.2°W
Report Text: KFSI 241658Z AUTO 18009KT 10SM CLR 25/17 A3010 RMK AO2 SLP187 T02480168
Loading
Personal Weather Stations






























Interactive Weather Map
Tropical Storm Tracking
New forecast layout! Learn more

10-Day Weather Forecast

Advertisements
Track Severe Weather on mobile